Startpagina
METAR-TAF:

METAR-TAF

Vliegvelden :

Yap, Yap Island, Micronesië

breedte: 09-29N, lengte: 138-05E, hoogte: 28 m

Actueel weer

Dit bericht is 46 minuten geleden gemaakt, om 23:53 UTC
Wind 5 kt uit variabele richting
Temperatuur 29°C
Vochtigheid 74%
Druk 1009 hPa
Zicht: 19.3 km
Weinig wolken op 1600 ft
Verspreide wolken op 13000 ft
Gebroken wolken op 30000 ft

METAR: PTYA 252353Z VRB05KT 12SM FEW016 SCT130 BKN300 29/24 A2980 RMK SLP093 60019 8/171 T02900238 10290 20248 55000

Tijdstip: 10:39 (00:39 UTC)

Verwachting

Dit bericht is 1 uur en het 3 minuten geleden gemaakt, om 23:36 UTC
Verwachting geldig van 26 om 00 UTC tot 26 om 24 UTC
Wind 10 kt uit het zuidwesten
Zicht: 10 km
Verspreide wolken op 1600 ft
Gebroken wolken op 13000 ft
buien in de omgeving

TAF: PTYA 252336Z 2600/2624 23010KT P6SM VCSH SCT016 BKN130

Waarnemingen en weersverwachtingen van meer dan 4000 vliegvelden (METAR en TAF).

De beschikbare stations zijn de gele en rode punten op de kaart.

Ga met uw muis naar het station om de naam te zien.

Klik dan om waarnemingen en weersverwachtingen te zien.

kaart wijzigen: klik op de groene knoppen met een zwart kruis om in te zoomen, op de groene knop met een streepje om uit te zoomen of op de groene pijlen voor aangrenzende kaarten.


METAR-TAF: